Culiacán Rosales, México

4:04 PM MDT en Octubre 25, 2014 (GMT -0600)
Culiacan International | Change Station
CLOSE
Current Station
Aeropuerto
Location: Culiacan,
Altura: 105 ft
Estaciones meteorológicas cercanas

Alt 105 ft 24.77 °N, 107.47 °W | Updated 23 minutes ago

Clear
Despejado
100 ° F
Sensación térmica 116 ° F
N
7
Viento Variable Viento desde Oeste

Hoy
Alta -- | Baja -- ° F
--% Posibilidad de precipitaciones
Ayer
Alta -- | Baja -- ° F
Precip. -- pul
7:13 AM 6:34 PM
Creciente, 4% visible
Presión 29.86 pul
Visibilidad 10.0 Millas
Nubes Despejado
Índice de calor 116 ° F
Punto de rocío 77 ° F
Humedad 47%
Precipitaciones 0.00 pul
Espesor de la nieve No disponible.
UV 4 de una escala de 12
Polen No disponible.
Calidad del aire No disponible.
Flu Activity No disponible.
METAR MMCL 252141Z 27006KT 10SM SKC 38/25 A2986 RMK HZY

More Conditions Fewer Conditions

Presión 29.86 pul
Visibilidad 10.0 Millas
Nubes Despejado
Índice de calor 116 ° F
Punto de rocío 77 ° F
Humedad 47%
Precipitaciones 0.00 pul
Espesor de la nieve No disponible.
UV 4 de una escala de 12
Polen No disponible.
Calidad del aire No disponible.
Flu Activity No disponible.
METAR MMCL 252141Z 27006KT 10SM SKC 38/25 A2986 RMK HZY

More Conditions Fewer Conditions

10-Day Weather Forecast

Almanac

Astronomía

Oct. 25, 2014 Salida Puesta
Hora real 7:13 AM MDT 6:34 PM MDT
Crepúsculo civil 6:49 AM MDT 6:57 PM MDT
Crepúsculo náutico 6:22 AM MDT 7:24 PM MDT
Crepúsculo astronómico 5:56 AM MDT 7:51 PM MDT
Luna 8:47 AM MDT 8:08 PM MDT
Horas de luz 12h 07m
Horas de luz
11h 21m
Tomorrow will be 1m 19s shorter.
Creciente, 4% of the Moon is Illuminated
Hoy
Creciente
Oct 30
Cuarto creciente
Nov 6
Luna llena
Nov 14
Cuarto menguante
Nov 22
Nueva

Extremos de hoy

Máximos del país Bajas del país

Community

WunderPhotos

Upload Photos

1,765,009 ¡fotos cargadas!

Nearby

Calidad del aire

Not available.

Grosos de nieve

Not available.

Actividad de terremotos

Ciudad Distance Mag. Tiempo y dato
No hay informes recientes de la actividad sísmica.
Magnitud mínima muestra es 2,5.

Temperaturas de aguas costeras

Lugar Temperatura
Sin partes meteorológicos de las estaciones

Estaciones meteorológicas cercanas